Tiempo atmosférico en la estación meteorológica de Santiago de Compostela Aeropuerto, A Coruña (370 m.)



Fecha
DESCASC
Temp. máxima en grados centígrados (hora)
DESCASC
Temp. mínima en grados centígrados (hora)
DESCASC
Temp. media en grados centígrados
DESCASC
Racha de viento máxima en m/sg (hora)
DESCASC
Velocidad máxima media en intervalos de 10 minutos(hora)
DESCASC
Precipitaciones diarias en mm
DESCASC
Precipitaciones de 00:00 a 06:00 en mm
DESCASC
Precipitaciones de 06:00 a 12:00 en mm
DESCASC
Precipitaciones de 12:00 a 18:00 en mm
DESCASC
Precipitaciones de 18:00 a 24:00 en mm
DESCASC
18-08-2019 20.9 (16:40) 13.3 (23:59) 17.1 10.83 (06:00) 6.94 (05:50) 8.3 8.3 0 0 0
17-08-2019 22.8 (17:30) 17.3 (02:10) 20 10.83 (18:40) 6.39 (18:40) 0.1 0 0 0 0.1
16-08-2019 25.6 (16:40) 11 (06:30) 18.3 8.89 (15:30) 4.44 (17:10) 0 0 0 0 0
15-08-2019 25.2 (16:10) 12.8 (00:00) 19 7.78 (16:20) 4.72 (15:30) 0 0 0 0 0
14-08-2019 24.2 (19:10) 12.3 (00:00) 18.3 6.11 (14:30) 4.17 (19:30) 0 0 0 0 0
13-08-2019 23.7 (17:50) 9.2 (00:00) 16.5 7.78 (18:20) 5.28 (19:30) 0 0 0 0 0
12-08-2019 19.5 (17:00) 8.9 (00:00) 14.2 8.33 (21:10) 5 (21:00) 0 0 0 0 0
11-08-2019 18.6 (15:30) 10.8 (00:00) 14.7 -- (--) -- (--) 12.6 0 0 12.5 0.1
10-08-2019 21.6 (15:40) 14.6 (00:00) 18.1 8.89 (15:40) 4.44 (18:30) 2.2 2.2 0 0 0
09-08-2019 20.7 (14:40) 15.8 (00:00) 18.3 16.94 (12:10) 10 (12:10) 1.5 0.1 0 0.2 1.2
08-08-2019 21.2 (16:40) 17 (00:00) 19.1 17.5 (22:10) 8.89 (17:50) 34.6 1.4 3 10.5 19.7
07-08-2019 19.5 (20:20) 16.5 (00:00) 18 10.28 (23:00) 6.39 (23:00) 5 0 1.2 3.5 0.3
06-08-2019 20.6 (14:00) 16.5 (00:00) 18.6 7.22 (15:30) 4.17 (15:50) 0 0 0 0 0
05-08-2019 27.1 (17:10) 13.2 (00:00) 20.2 8.33 (13:10) 4.72 (18:10) 0 0 0 0 0
04-08-2019 26.4 (17:00) 16.2 (00:00) 21.3 8.33 (17:50) 5 (17:10) 0 0 0 0 0
03-08-2019 27.8 (16:10) 13.5 (00:00) 20.6 8.33 (18:00) 5.83 (16:40) 0 0 0 0 0
02-08-2019 28.4 (18:10) 13.2 (00:00) 20.8 8.33 (19:10) 6.11 (20:10) 0 0 0 0 0
01-08-2019 25.1 (16:40) 12.3 (00:00) 18.7 9.17 (16:50) 5.56 (20:30) 0 0 0 0 0
31-07-2019 23.2 (16:20) 10.1 (00:00) 16.7 8.89 (16:20) 5.83 (19:30) 0 0 0 0 0
30-07-2019 21 (17:30) 11.3 (00:00) 16.2 9.17 (15:20) 4.72 (21:10) 0 0 0 0 0
29-07-2019 20.3 (15:50) 13 (00:00) 16.6 11.39 (14:40) 6.94 (18:10) 1 0.1 0.6 0.3 0
28-07-2019 24.2 (17:00) 9.4 (00:00) 16.8 10.28 (21:40) 5.56 (18:20) 0 0 0 0 0
27-07-2019 21.5 (17:00) 12.7 (00:00) 17.1 9.17 (19:20) 6.11 (19:30) 6.4 0.6 4.8 1 0
26-07-2019 21.5 (16:30) 13.9 (00:00) 17.7 7.78 (17:10) 4.72 (17:20) 0.1 0 0.1 0 0
25-07-2019 22.1 (18:20) 16 (00:00) 19.1 9.72 (02:10) 6.39 (02:10) 2.1 0 1 1.1 0
24-07-2019 26.3 (16:30) 13.2 (00:00) 19.7 10.83 (16:30) 6.67 (19:00) 0 0 0 0 0
23-07-2019 27.3 (16:50) 17.7 (00:00) 22.5 9.17 (14:30) 5.28 (14:30) 0 0 0 0 0
22-07-2019 32.1 (17:20) 14.7 (00:00) 23.4 8.33 (19:00) 5.83 (19:20) 0 0 0 0 0
21-07-2019 25.7 (15:30) 14 (00:00) 19.9 10.28 (18:00) 7.78 (18:40) 0 0 0 0 0

Gráficas

Temp. máximas Temp. mínimas Temp. medias Precipitaciones Rachas de viento máximas Velocidades máximas media en intervalos de 10 minutos

Datos horarios

Fecha y hora oficial Temperatura (ºC) Velocidad del viento (km/h) Dirección del viento Racha (km/h) Dirección de racha Precipitación (mm) Presión (hPa) Tendencia (hPa) Humedad (%)
2019-08-19 23:00:00 14.5 13 Norte 26 Norte 0 979 1.3 85
2019-08-19 22:00:00 15.3 12 Norte 30 Norte 0 978.4 0.7 79
2019-08-19 21:00:00 16.2 13 Norte 30 Nordeste 0 978 0.5 79
2019-08-19 20:00:00 17.2 19 Norte 33 Norte 0 977.7 0.2 74
2019-08-19 19:00:00 18.3 22 Norte 37 Norte 0 977.7 0 72
2019-08-19 18:00:00 18.8 26 Norte 41 Norte 0 977.5 0 71
2019-08-19 17:00:00 19.6 25 Norte 37 Norte 0 977.5 -0.2 67
2019-08-19 16:00:00 20 13 Norte 35 Norte 0 977.7 -0.1 64
2019-08-19 15:00:00 19.7 11 Norte 32 Norte 0 977.5 -0.5 63
2019-08-19 14:00:00 18.6 9 Norte 28 Norte 0 977.7 -0.1 68
2019-08-19 13:00:00 18.5 12 Norte 26 Norte 0 977.8 0 68
2019-08-19 12:00:00 17.5 8 Norte 22 Norte 0 978 0.5 71
2019-08-19 11:00:00 15.7 9 Norte 26 Norte 0 977.8 0.5 78
2019-08-19 10:00:00 13.8 6 Norte 17 Norte 0 977.8 0.5 88
2019-08-19 09:00:00 12.2 2 Norte 11 Norte 0 977.5 0.2 94
2019-08-19 08:00:00 11.8 3 Norte 18 Norte 0 977.3 0.1 94
2019-08-19 07:00:00 12.1 11 Norte 18 Norte 0 977.3 -0.1 92
2019-08-19 06:00:00 12.2 8 Norte 18 Norte 0 977.3 -0.9 91
2019-08-19 05:00:00 11.4 3 Norte 8 Norte 0 977.2 -0.9 95
2019-08-19 04:00:00 11.7 2 Nordeste 11 Norte 0 977.4 -0.8 94
2019-08-19 03:00:00 12.3 9 Norte 15 Norte 0 978.2 0.1 92
2019-08-19 02:00:00 12.4 4 Norte 15 Norte 0 978.1 0.4 92
2019-08-19 01:00:00 13 8 Norte 15 Norte 0 978.2 1.5 89
2019-08-19 00:00:00 13.4 8 Norte 18 Norte 0 978.1 2 86
2019-08-18 23:00:00 13.8 13 Norte 18 Norte 0 977.7 1.6 86
2019-08-18 22:00:00 14.3 15 Norte 30 Norte 0 976.7 1.1 83
2019-08-18 21:00:00 16.2 20 Norte 32 Norte 0 976.1 0.8 74
2019-08-18 20:00:00 17.9 17 Norte 26 Norte 0 976.1 0.9 69
2019-08-18 19:00:00 18.2 16 Norte 30 Norte 0 975.6 0.6 67
2019-08-18 18:00:00 18.8 11 Norte 35 Norte 0 975.3 0.4 69
2019-08-18 17:00:00 19.7 9 Norte 26 Norte 0 975.2 0.4 67
2019-08-18 16:00:00 19.6 12 Norte 24 Norte 0 975 0.1 66
2019-08-18 15:00:00 19.4 9 Norte 22 Norte 0 974.9 0.3 68
2019-08-18 14:00:00 18.3 6 Norte 28 Norte 0 974.8 1 71
2019-08-18 13:00:00 17.9 14 Norte 30 Norte 0 974.9 1.8 79
2019-08-18 12:00:00 16.8 13 Norte 26 Norte 0 974.6 2.3 88
2019-08-18 11:00:00 15.4 13 Norte 24 Norte 0 973.8 2.3 94
2019-08-18 10:00:00 14.9 16 Norte 28 Norte 0 973.1 2.2 98
2019-08-18 09:00:00 15 15 Norte 24 Norte 0 972.3 1.6 100
2019-08-18 08:00:00 15.1 11 Norte 30 Norte 0 971.5 1.5 100
2019-08-18 07:00:00 15.5 18 Norte 28 Norte 0 970.9 0.9 100
2019-08-18 06:00:00 16.6 24 Norte 39 Norte 4.6 970.7 0.2 100
2019-08-18 05:00:00 18.3 19 Sudoeste 37 Sudoeste 3.6 970 -1.1 100
2019-08-18 04:00:00 18.6 15 Sur 30 Sur 0.1 970 -1.4 98
2019-08-18 03:00:00 18.8 14 Sur 32 Sur 0 970.5 -1.5 98
2019-08-18 02:00:00 18.6 15 Sur 28 Sudoeste 0 971.1 -1 99
2019-08-18 01:00:00 18.7 13 Sudoeste 28 Sur 0 971.4 -0.3 98
2019-08-18 00:00:00 18.7 13 Sudoeste 24 Sudoeste 0 972 0 97
2019-08-17 23:00:00 18.7 13 Sur 26 Sudoeste 0 972.1 -0.4 98
2019-08-17 22:00:00 18.9 15 Sur 24 Sur 0 971.7 -1 99
2019-08-17 21:00:00 18.9 14 Sudoeste 33 Sur 0 972 -0.9 99
2019-08-17 20:00:00 19 19 Sudoeste 39 Sudoeste 0.1 972.5 -0.5 99
2019-08-17 19:00:00 19.6 22 Sudoeste 39 Sudoeste 0 972.7 -0.6 96
2019-08-17 18:00:00 21.7 17 Sudoeste 30 Sur 0 972.9 -0.8 84
2019-08-17 17:00:00 22.4 15 Sudoeste 33 Sur 0 973 -1.1 84
2019-08-17 16:00:00 21.9 12 Sudoeste 28 Sur 0 973.3 -1 86
2019-08-17 15:00:00 21.2 15 Sudoeste 32 Sur 0 973.7 -0.6 88
2019-08-17 14:00:00 20.7 15 Sur 26 Sudoeste 0 974.1 -0.3 88
2019-08-17 13:00:00 20.3 15 Sur 30 Sur 0 974.3 -0.3 88
2019-08-17 12:00:00 19.9 12 Sudoeste 30 Sur 0 974.3 -0.1 89
2019-08-17 11:00:00 19.2 14 Sur 22 Sur 0 974.4 -0.1 90
2019-08-17 10:00:00 18.5 13 Sur 21 Sur 0 974.6 0.1 93
2019-08-17 09:00:00 17.6 12 Sur 18 Sur 0 974.4 -0.4 99
2019-08-17 08:00:00 17.5 12 Sur 17 Sur 0 974.5 -0.2 97
2019-08-17 07:00:00 17.4 10 Sur 17 Sur 0 974.5 -0.8 97
2019-08-17 06:00:00 17.3 10 Sur 17 Sur 0 974.8 -0.9 97
2019-08-17 05:00:00 17.4 9 Sur 15 Sur 0 974.7 -1.3 97
2019-08-17 04:00:00 17.5 8 Sur 15 Sur 0 975.3 -0.9 97
2019-08-17 03:00:00 17.4 8 Sur 13 Sudoeste 0 975.7 -0.9 98
2019-08-17 02:00:00 17.4 9 Sur 17 Sur 0 976 -0.8 99
2019-08-17 01:00:00 17.6 9 Sudoeste 17 Sur 0 976.2 0 98
2019-08-17 00:00:00 17.9 8 Sur 13 Sur 0 976.6 0.7 96
2019-08-16 23:00:00 18 5 Oeste 21 Oeste 0 976.8 0.9 92
2019-08-16 22:00:00 18.1 10 Oeste 17 Oeste 0 976.2 0.4 92
2019-08-16 21:00:00 19.7 10 Sudoeste 24 Oeste 0 975.9 -0.2 85
2019-08-16 20:00:00 21.6 14 Oeste 24 Oeste 0 975.9 -0.3 75
2019-08-16 19:00:00 23.7 15 Oeste 26 Sudoeste 0 975.8 -0.8 72
2019-08-16 18:00:00 24.3 15 Oeste 28 Oeste 0 976.1 -0.6 68
2019-08-16 17:00:00 25.1 14 Oeste 30 Sudoeste 0 976.2 -0.6 63
2019-08-16 16:00:00 25 13 Oeste 32 Oeste 0 976.6 -0.3 65
2019-08-16 15:00:00 24.4 9 Oeste 24 Oeste 0 976.7 -0.6 64
2019-08-16 14:00:00 23.3 12 Oeste 22 Sur 0 976.8 -0.3 62
2019-08-16 13:00:00 22 11 Sur 18 Sudoeste 0 976.9 -0.4 72
2019-08-16 12:00:00 19.4 5 Oeste 17 Noroeste 0 977.3 0.1 78
2019-08-16 11:00:00 17.7 6 Noroeste 11 Norte 0 977.1 0 79
2019-08-16 10:00:00 13.8 4 Oeste 11 Oeste 0 977.3 0.2 96
2019-08-16 09:00:00 13.3 4 Noroeste 15 Noroeste 0 977.2 0.2 98
2019-08-16 08:00:00 12 6 Oeste 11 Oeste 0 977.1 -0.1 100
2019-08-16 07:00:00 11.8 8 Noroeste 15 Noroeste 0 977.1 -0.6 99
2019-08-16 06:00:00 11.7 11 Noroeste 13 Oeste 0 977 -1 98
2019-08-16 05:00:00 13.4 0 Calma 4 Noroeste 0 977.2 -1.1 92
2019-08-16 04:00:00 13.3 2 Noroeste 11 Oeste 0 977.7 -0.9 92
2019-08-16 03:00:00 13.1 7 Noroeste 11 Noroeste 0 978 -0.7 95
2019-08-16 02:00:00 13.6 9 Noroeste 13 Noroeste 0 978.3 -0.7 94
2019-08-16 01:00:00 14.6 10 Noroeste 13 Noroeste 0 978.6 -0.2 90
2019-08-16 00:00:00 14.9 9 Noroeste 13 Noroeste 0 978.7 0 89
2019-08-15 23:00:00 15.4 13 Norte 24 Norte 0 979 0.5 87
2019-08-15 22:00:00 17.7 13 Norte 22 Norte 0 978.8 0.5 81
2019-08-15 21:00:00 20.5 15 Norte 28 Norte 0 978.7 0 74
2019-08-15 20:00:00 22.6 12 Norte 28 Noroeste 0 978.5 -0.5 68
2019-08-15 19:00:00 23.9 12 Norte 26 Norte 0 978.3 -1.1 64
2019-08-15 18:00:00 24.4 14 Norte 26 Norte 0 978.7 -0.9 61
2019-08-15 17:00:00 24.6 15 Norte 28 Norte 0 979 -0.8 57
2019-08-15 16:00:00 24.4 12 Norte 26 Norte 0 979.4 -0.6 62
2019-08-15 15:00:00 24 7 Norte 21 Norte 0 979.6 -0.4 61
2019-08-15 14:00:00 22.6 7 Norte 21 Norte 0 979.8 -0.2 65
2019-08-15 13:00:00 21.4 8 Norte 21 Norte 0 980 0.1 67
2019-08-15 12:00:00 19.8 10 Norte 22 Norte 0 980 0.2 74
2019-08-15 11:00:00 17.8 6 Nordeste 17 Norte 0 980 0.2 82
2019-08-15 10:00:00 16.2 4 Nordeste 13 Norte 0 979.9 0.1 90
2019-08-15 09:00:00 13.7 0 Calma 8 Este 0 979.8 -0.1 98
2019-08-15 08:00:00 12.8 2 Este 9 Este 0 979.8 -0.1 100
2019-08-15 07:00:00 13.5 2 Norte 13 Norte 0 979.8 -0.4 99
2019-08-15 06:00:00 13.8 8 Norte 11 Norte 0 979.9 -0.6 99
2019-08-15 05:00:00 13.6 3 Norte 13 Norte 0 979.9 -0.9 98
2019-08-15 04:00:00 13.9 5 Norte 9 Norte 0 980.2 -0.1 98
2019-08-15 03:00:00 14.4 6 Norte 11 Norte 0 980.5 0.3 97
2019-08-15 02:00:00 14.9 9 Norte 15 Norte 0 980.8 0.8 96
2019-08-15 01:00:00 15.4 10 Norte 17 Norte 0 980.3 0.8 97
2019-08-15 00:00:00 15.8 13 Norte 18 Norte 0 980.2 1 97
2019-08-14 23:00:00 16.5 12 Norte 17 Norte 0 980 1.1 94
2019-08-14 22:00:00 18.4 11 Norte 21 Norte 0 979.5 0.5 89
2019-08-14 21:00:00 21 11 Norte 22 Norte 0 979.2 0.1 81
2019-08-14 20:00:00 23.4 14 Noroeste 21 Norte 0 978.9 -0.5 68
2019-08-14 19:00:00 23.2 9 Noroeste 21 Oeste 0 979 -0.5 75
2019-08-14 18:00:00 23.5 10 Noroeste 21 Noroeste 0 979.1 -0.6 74
2019-08-14 17:00:00 21.8 10 Oeste 18 Oeste 0 979.4 -0.3 83
2019-08-14 16:00:00 21.3 9 Oeste 18 Oeste 0 979.5 -0.1 84
2019-08-14 15:00:00 21.3 13 Oeste 22 Oeste 0 979.7 0 83
2019-08-14 14:00:00 -- 8 Sudoeste 18 Sudoeste 0 979.7 0.3 --
2019-08-14 13:00:00 19.9 11 Sudoeste 18 Sudoeste 0 979.6 0.6 85
2019-08-14 12:00:00 17.6 9 Sur 18 Sur 0 979.7 0.7 88
2019-08-14 11:00:00 16.2 5 Sur 13 Sudeste 0 979.4 0.9 83
2019-08-14 10:00:00 14.5 9 Sur 11 Sur 0 979 0.6 93
2019-08-14 09:00:00 13.8 9 Sur 11 Sur 0 979 0.5 97
2019-08-14 08:00:00 13 4 Sur 8 Sur 0 978.5 -0.2 100
2019-08-14 07:00:00 12.4 4 Sudeste 11 Sur 0 978.4 -0.9 100
2019-08-14 06:00:00 12.7 2 Sur 11 Sur 0 978.5 -0.8 100
2019-08-14 05:00:00 12.7 7 Sur 11 Sur 0 978.7 -0.4 98
2019-08-14 04:00:00 12.8 0 Calma -- -- 0 979.3 -0.1 99
2019-08-14 03:00:00 12.7 5 Noroeste 8 Noroeste 0 979.3 -0.3 97
2019-08-14 02:00:00 13.6 3 Sudeste 5 Sudeste 0 979.1 -0.8 96
2019-08-14 01:00:00 13.7 0 Calma 4 Sudeste 0 979.4 0 96
2019-08-14 00:00:00 14.1 2 Norte 9 Norte 0 979.6 0.5 93
2019-08-13 23:00:00 15 9 Norte 18 Norte 0 979.9 1 88
2019-08-13 22:00:00 16.2 13 Norte 22 Norte 0 979.4 0.7 85
2019-08-13 21:00:00 18.2 14 Norte 26 Norte 0 979.1 0.4 78
2019-08-13 20:00:00 20.2 16 Norte 28 Norte 0 978.9 0.2 71
2019-08-13 19:00:00 21.7 14 Norte 28 Norte 0 978.7 -0.4 67
2019-08-13 18:00:00 23.1 13 Norte 24 Norte 0 978.7 -0.8 53
2019-08-13 17:00:00 22.8 11 Noroeste 21 Noroeste 0 978.7 -1.1 54
2019-08-13 16:00:00 22.4 6 Norte 17 Norte 0 979.1 -0.6 58
2019-08-13 15:00:00 21.7 6 Norte 17 Norte 0 979.5 -0.8 60
2019-08-13 14:00:00 20.9 6 Sudeste 15 Norte 0 979.8 -0.6 63
2019-08-13 13:00:00 19.6 5 Este 18 Norte 0 979.7 -0.8 67
2019-08-13 12:00:00 17.3 5 Nordeste 18 Norte 0 980.3 0 76
2019-08-13 11:00:00 15.1 5 Nordeste 15 Nordeste 0 980.4 0.5 82
2019-08-13 10:00:00 13.1 5 Norte 13 Norte 0 980.5 0.5 88
2019-08-13 09:00:00 10.7 3 Nordeste 11 Nordeste 0 980.3 0.6 94
2019-08-13 08:00:00 9.9 3 Norte 8 Norte 0 979.9 0 96
2019-08-13 07:00:00 9.9 5 Noroeste 11 Norte 0 980 -0.2 96
2019-08-13 06:00:00 10.2 2 Norte 13 Norte 0 979.7 -1.3 96
2019-08-13 05:00:00 10.1 9 Noroeste 13 Norte 0 979.9 -1.7 95
2019-08-13 04:00:00 10.5 3 Norte 11 Noroeste 0 980.2 -1.6 96
2019-08-13 03:00:00 10 8 Noroeste 11 Noroeste 0 981 -0.8 95
2019-08-13 02:00:00 10.3 7 Norte 11 Norte 0 981.6 -0.5 96
2019-08-13 01:00:00 11.9 5 Norte 13 Norte 0 981.8 0.2 93
2019-08-13 00:00:00 12.6 4 Norte 18 Nordeste 0 981.8 0.6 90
2019-08-12 23:00:00 13.3 10 Norte 22 Norte 0 982.1 1.5 86
2019-08-12 22:00:00 14.3 15 Norte 30 Norte 0 981.6 1.1 82
2019-08-12 21:00:00 15.8 18 Norte 28 Norte 0 981.2 0.8 77
2019-08-12 20:00:00 16.9 12 Norte 24 Norte 0 980.6 -0.1 70
2019-08-12 19:00:00 17.9 14 Norte 24 Norte 0 980.5 -0.7 67
2019-08-12 18:00:00 18.9 15 Norte 24 Norte 0 980.4 -1.4 59
2019-08-12 17:00:00 19.1 12 Norte 21 Norte 0 980.7 -1.3 61
2019-08-12 16:00:00 17.9 7 Norte 17 Norte 0 981.2 -0.8 66
2019-08-12 15:00:00 17.5 10 Norte 18 Nordeste 0 981.8 -0.4 71
2019-08-12 14:00:00 17.3 4 Norte 18 Oeste 0 982 0 74
2019-08-12 13:00:00 17.9 9 Norte 18 Nordeste 0 982 0.2 70
2019-08-12 12:00:00 13.8 3 Este 11 Sudeste 0 982.2 0.9 100
2019-08-12 11:00:00 12.5 3 Este 9 Sur 0 982 1.3 100
2019-08-12 10:00:00 11.1 5 Sudeste 9 Sudeste 0 981.8 1.5 100
2019-08-12 09:00:00 10.3 3 Sudeste 5 Este 0 981.3 1.1 100
2019-08-12 08:00:00 9.1 0 Calma 5 Este 0 980.7 0.6 100
2019-08-12 07:00:00 10.7 4 Sur 5 Sur 0 980.3 0 100
2019-08-12 06:00:00 10.8 4 Oeste -- -- 0 980.2 -0.4 100
2019-08-12 05:00:00 11.9 0 Calma 5 Sur 0 980.1 -0.5 100
2019-08-12 04:00:00 11.6 0 Calma 4 Sur 0 980.3 -0.4 100
2019-08-12 03:00:00 11.6 3 Sudoeste -- -- 0 980.6 -0.1 99
2019-08-12 02:00:00 11.9 0 Calma 11 Noroeste 0 980.6 0.2 98
2019-08-12 01:00:00 12.2 5 Noroeste 8 Noroeste 0 980.7 0.9 98
2019-08-12 00:00:00 13 6 Noroeste 17 Oeste 0.1 980.7 1.5 94
2019-08-11 23:00:00 13.9 11 Noroeste 17 Oeste 0 980.4 1.8 89
2019-08-11 22:00:00 14.9 10 Norte 15 Noroeste 0 979.8 1.1 87
2019-08-11 21:00:00 16.2 10 Noroeste 22 Noroeste 0 979.2 0.7 78
2019-08-11 20:00:00 17.2 15 Noroeste 26 Noroeste 0 978.6 0.4 78
2019-08-11 19:00:00 16.8 9 Noroeste 21 Norte 0 978.7 0 79
2019-08-11 18:00:00 16.1 7 Norte 46 Noroeste 10.1 978.5 0.1 90
2019-08-11 17:00:00 17.9 9 Oeste 21 Oeste 0.7 978.2 0.1 77
2019-08-11 16:00:00 14 15 Oeste 37 Norte 1.3 978.7 0.3 89
2019-08-11 15:00:00 16.7 14 Noroeste 22 Noroeste 0.1 978.4 0.3 79
2019-08-11 14:00:00 16 10 Oeste 26 Sur 0.3 978.1 0.4 84
2019-08-11 13:00:00 16.9 12 Noroeste 24 Oeste 0 978.4 0.7 79
2019-08-11 12:00:00 16.8 13 Oeste 24 Sudoeste 0 978.1 0.5 80
2019-08-11 11:00:00 15.7 10 Sur 18 Sur 0 977.7 0.7 90
2019-08-11 10:00:00 13.2 7 Sur 9 Sur 0 977.7 0.7 100
2019-08-11 09:00:00 11.3 7 Sur 11 Sur 0 977.6 0.7 100
2019-08-11 08:00:00 11.5 5 Sur 8 Sur 0 977 -0.1 100
2019-08-11 07:00:00 11.7 4 Sur 9 Sudoeste 0 977 -0.5 100
2019-08-11 06:00:00 12.1 6 Sur 8 Sur 0 976.9 -1.1 99
2019-08-11 05:00:00 12.3 -- -- -- -- 0 977.1 -1.4 98
2019-08-11 04:00:00 12.8 3 Oeste -- -- 0 977.5 -0.7 96
2019-08-11 03:00:00 13.1 0 Calma -- -- 0 978 -0.4 95
2019-08-11 02:00:00 13.4 2 Sudeste 11 Norte 0 978.5 -0.1 95
2019-08-11 01:00:00 14.4 9 Norte 9 Norte 0 978.2 -0.4 90
2019-08-11 00:00:00 14.8 0 Calma 8 Oeste 0 978.4 0.2 94
2019-08-10 23:00:00 15.3 6 Noroeste 9 Norte 0 978.6 0.6 90
2019-08-10 22:00:00 16.7 9 Noroeste 17 Noroeste 0 978.6 0.5 81
2019-08-10 21:00:00 17.4 10 Oeste 15 Oeste 0 978.2 0.2 80
2019-08-10 20:00:00 18.8 9 Oeste 21 Oeste 0 978 -0.1 68
2019-08-10 19:00:00 20.1 13 Oeste 24 Oeste 0 978.1 -0.1 62
2019-08-10 18:00:00 20.6 14 Oeste 26 Sudoeste 0 978 -0.3 62
2019-08-10 17:00:00 21 13 Oeste 24 Oeste 0 978.1 -0.5 63
2019-08-10 16:00:00 20.8 14 Sudoeste 32 Sur 0 978.2 -0.3 59
2019-08-10 15:00:00 20.6 15 Oeste 28 Oeste 0 978.3 -0.3 64
2019-08-10 14:00:00 20.1 12 Sudoeste 26 Sur 0 978.6 0 67
2019-08-10 13:00:00 18.9 11 Sudoeste 21 Sudoeste 0 978.5 0 71
2019-08-10 12:00:00 18.4 9 Sudoeste 24 Sudoeste 0 978.6 0.6 78
2019-08-10 11:00:00 17.2 8 Oeste 17 Sur 0 978.6 1.1 83
2019-08-10 10:00:00 15.9 9 Sudoeste 21 Sudoeste 0 978.5 1.3 93
2019-08-10 09:00:00 15.2 10 Sudoeste 18 Sudoeste 0 978 1 97
2019-08-10 08:00:00 14.9 8 Sudoeste 17 Sudoeste 0 977.5 0.7 98
2019-08-10 07:00:00 14.8 8 Sudoeste 15 Oeste 0 977.2 0.6 98
2019-08-10 06:00:00 14.8 5 Sudoeste 24 Sudoeste 0 977 0.6 98
2019-08-10 05:00:00 15.1 9 Sudoeste 22 Sudoeste 0 976.8 0.3 97
2019-08-10 04:00:00 15.6 9 Sudoeste 18 Sudoeste 0 976.6 0.3 98
2019-08-10 03:00:00 15.7 8 Sudoeste 21 Sudoeste 0 976.4 0.4 98
2019-08-10 02:00:00 15.7 10 Sudoeste 24 Sudoeste 0 976.5 0.6 98
2019-08-10 01:00:00 15.8 9 Sudoeste 22 Sur 2.2 976.3 1.1 98
2019-08-10 00:00:00 15.9 11 Sudoeste 22 Oeste 0 976 1.2 97
2019-08-09 23:00:00 16.3 13 Sudoeste 24 Sur 0.3 975.9 1.5 96
2019-08-09 22:00:00 16.7 13 Sudoeste 28 Sudoeste 0 975.2 1.4 92
2019-08-09 21:00:00 16.9 13 Oeste 28 Sur 0.1 974.8 1.4 92
2019-08-09 20:00:00 18 12 Sudoeste 28 Sudoeste 0.7 974.4 1.3 88
2019-08-09 19:00:00 17.7 17 Sudoeste 35 Sudoeste 0.1 973.8 1.3 88
2019-08-09 18:00:00 17.9 17 Oeste 42 Oeste 0 973.4 1.3 89
2019-08-09 17:00:00 18.1 24 Sudoeste 50 Sudoeste 0 973.1 1.6 90
2019-08-09 16:00:00 19.4 28 Sudoeste 58 Sur 0 972.5 1.5 78
2019-08-09 15:00:00 19.9 30 Sudoeste 58 Sudoeste 0.1 972.1 2 76
2019-08-09 14:00:00 19.8 27 Sudoeste 54 Sudoeste 0.1 971.5 1.9 79
2019-08-09 13:00:00 19.5 31 Sudoeste 61 Sudoeste 0 971 1.9 79
2019-08-09 12:00:00 20.1 33 Sudoeste 52 Sur 0 970.1 1.9 78
2019-08-09 11:00:00 19.2 31 Sudoeste 52 Sudoeste 0 969.6 1.6 83
2019-08-09 10:00:00 18.4 28 Sudoeste 58 Sudoeste 0 969.1 1.3 85
2019-08-09 09:00:00 17.8 27 Sudoeste 54 Sudoeste 0 968.2 0.6 91
2019-08-09 08:00:00 17.4 30 Sudoeste 46 Sudoeste 0 968 0.5 91
2019-08-09 07:00:00 17.4 22 Sudoeste 52 Sur 0 967.8 0.5 91
2019-08-09 06:00:00 17.3 26 Sudoeste 46 Sudoeste 0 967.6 0.3 93
2019-08-09 05:00:00 17.3 26 Sudoeste 48 Sudoeste 0 967.5 0.5 93
2019-08-09 04:00:00 17 24 Sudoeste 50 Sudoeste 0 967.3 0.1 95
2019-08-09 03:00:00 17.2 26 Sudoeste 48 Sudoeste 0 967.3 0.3 92
2019-08-09 02:00:00 17.2 28 Sudoeste 50 Sudoeste 0 967 0.3 95
2019-08-09 01:00:00 16.8 21 Sudoeste 46 Sudoeste 0.1 967.2 1.6 99
2019-08-09 00:00:00 17.1 26 Sudoeste 50 Sudoeste 0.3 967 1.9 97
2019-08-08 23:00:00 18.1 27 Sudoeste 63 Sudoeste 1.2 966.7 1.1 100
2019-08-08 22:00:00 20.1 22 Sudoeste 52 Sur 12.2 965.6 -0.5 100
2019-08-08 21:00:00 20.4 26 Sur 46 Sur 3.1 965.1 -1.2 100
2019-08-08 20:00:00 20.3 28 Sur 50 Sur 0.4 965.6 -0.6 100
2019-08-08 19:00:00 20.3 27 Sur 52 Sur 2.5 966.1 -0.7 97
2019-08-08 18:00:00 20.2 25 Sur 48 Sur 3.7 966.3 -0.7 99
2019-08-08 17:00:00 20.9 21 Sur 42 Sur 0.3 966.2 -1.2 95
2019-08-08 16:00:00 20.7 22 Sur 48 Sur 0.8 966.8 -0.7 98
2019-08-08 15:00:00 20.7 28 Sudoeste 54 Sur 0.7 967 -0.7 99
2019-08-08 14:00:00 20.9 24 Sur 45 Sur 3.9 967.4 0.1 100
2019-08-08 13:00:00 20.9 19 Sur 35 Sur 1.1 967.5 -0.3 100
2019-08-08 12:00:00 20.2 17 Sudoeste 28 Sudoeste 1.8 967.7 0 100
2019-08-08 11:00:00 20 14 Sur 30 Sur 0.2 967.3 -0.5 100
2019-08-08 10:00:00 20 14 Sur 33 Sur 0.1 967.8 0 100
2019-08-08 09:00:00 19.3 20 Sur 32 Sur 0.5 967.7 0.1 100
2019-08-08 08:00:00 18.9 13 Sur 32 Sur 0.3 967.8 -0.1 100
2019-08-08 07:00:00 18.9 17 Sur 37 Sur 0.1 967.8 -0.3 100
2019-08-08 06:00:00 18.8 17 Sur 33 Sur 0.2 967.6 -0.7 100
2019-08-08 05:00:00 18.5 20 Sur 32 Sur 0.4 967.9 -0.7 100
2019-08-08 04:00:00 18.3 18 Sur 28 Sur 0.5 968.1 -0.6 100
2019-08-08 03:00:00 18 14 Sur 28 Sur 0.1 968.3 -0.8 100
2019-08-08 02:00:00 18.5 19 Sur 35 Sur 0 968.6 -0.7 95
2019-08-08 01:00:00 18.2 21 Sur 32 Sur 0.2 968.7 -0.3 95
2019-08-08 00:00:00 17.9 15 Sur 32 Sur 0 969.1 0.3 95
2019-08-07 23:00:00 18 23 Sur 37 Sur 0.1 969.3 0.4 96
2019-08-07 22:00:00 18.3 16 Sur 32 Sur 0.2 969 -0.2 98
2019-08-07 21:00:00 19.1 18 Sur 32 Sur 0 968.8 -0.8 93
2019-08-07 20:00:00 19.4 19 Sur 32 Sur 0 968.9 -1 95
2019-08-07 19:00:00 19 15 Sur 32 Sur 0 969.2 -0.8 99
2019-08-07 18:00:00 19.1 15 Sur 32 Sur 0.4 969.6 -0.6 100
2019-08-07 17:00:00 18.8 16 Sudoeste 32 Sur 1.4 969.9 -0.3 100
2019-08-07 16:00:00 19 17 Sur 32 Sur 1.1 970 -0.1 99
2019-08-07 15:00:00 19 18 Sur 32 Sur 0.3 970.2 0 99
2019-08-07 14:00:00 18.9 13 Sur 26 Sur 0.2 970.2 0.1 98
2019-08-07 13:00:00 18.6 11 Sur 22 Sur 0.1 970.1 -0.2 100
2019-08-07 12:00:00 18.1 11 Sur 21 Sur 1.1 970.2 0.2 100
2019-08-07 11:00:00 18.1 8 Sur 15 Sudeste 0.1 970.1 0.2 100
2019-08-07 10:00:00 17.1 5 Sur 11 Sudeste 0 970.3 0.3 100
2019-08-07 09:00:00 16.6 7 Sur 13 Sur 0 970 -0.1 100
2019-08-07 08:00:00 16.6 7 Sur 9 Sur 0 969.9 -0.3 100
2019-08-07 07:00:00 16.9 6 Sur 9 Sudoeste 0 970 -0.5 100
2019-08-07 06:00:00 17 3 Sudeste 8 Sudeste 0 970.1 -0.7 99
2019-08-07 05:00:00 17.3 5 Sudeste 11 Sur 0 970.2 -0.9 98
2019-08-07 04:00:00 17.4 7 Sudoeste -- -- -- 970.5 -0.8 98
2019-08-07 03:00:00 17.6 8 Sudoeste 17 Sur 0 970.8 -1.1 97
2019-08-07 02:00:00 17.7 7 Sur 13 Sudoeste 0 971.1 -1 99
2019-08-07 01:00:00 17.8 6 Sur 11 Sur 0 971.3 -0.1 99
2019-08-07 00:00:00 18.2 6 Sur 18 Oeste 0 971.9 0.4 96
2019-08-06 23:00:00 18.4 6 Oeste 24 Oeste 0 972.1 1.1 95
2019-08-06 22:00:00 18.5 3 Sudoeste 17 Sudoeste 0 971.4 0 94
2019-08-06 21:00:00 18.9 12 Oeste 24 Oeste 0 971.5 -0.5 93
2019-08-06 20:00:00 19.4 6 Oeste 9 Oeste 0 971 -1.7 92
2019-08-06 19:00:00 19.2 7 Sur 17 Sur 0 971.4 -2.1 93
2019-08-06 18:00:00 19 13 Sur 21 Sur 0 972 -1.1 95
2019-08-06 17:00:00 19.3 11 Sur 21 Sudoeste 0 972.7 -0.5 94
2019-08-06 16:00:00 19.1 14 Sudoeste 26 Sudoeste 0 973.5 0.5 92
2019-08-06 15:00:00 20 12 Sudoeste 24 Sudoeste 0 973.1 0.1 89
2019-08-06 14:00:00 20.4 12 Sudoeste 22 Sudoeste 0 973.2 0.4 85
2019-08-06 13:00:00 20.2 9 Sudoeste 17 Sur 0 973 0.2 86
2019-08-06 12:00:00 19.4 12 Sur 22 Sudoeste 0 973 0.4 89
2019-08-06 11:00:00 18.4 8 Sur 17 Sur 0 972.8 0.4 93
2019-08-06 10:00:00 17.4 11 Sur 17 Sur 0 972.8 0.8 98
2019-08-06 09:00:00 17.2 10 Sur 17 Sur 0 972.6 0.4 99
2019-08-06 08:00:00 16.9 6 Sur 13 Sudoeste 0 972.4 -0.4 98
2019-08-06 07:00:00 16.7 8 Sur 22 Sudoeste 0 972 -1.2 99
2019-08-06 06:00:00 17.1 6 Sur 13 Sudoeste 0 972.2 -1.2 99
2019-08-06 05:00:00 17.3 5 Sudoeste 9 Sudoeste 0 972.8 -1.1 99
2019-08-06 04:00:00 17.3 5 Sudoeste 13 Sur 0 973.2 -0.8 100
2019-08-06 03:00:00 17.4 8 Sur 17 Sur 0 973.4 -0.6 98
2019-08-06 02:00:00 18.1 8 Sudoeste 15 Sudoeste 0 973.9 -0.2 94
2019-08-06 01:00:00 18.5 10 Sudoeste 21 Sudoeste 0 974 0.4 93
2019-08-06 00:00:00 18.7 10 Sudoeste 21 Sudoeste 0 974 0.6 93
2019-08-05 23:00:00 19.2 13 Sudoeste 24 Sudoeste 0 974.1 0.7 91
2019-08-05 22:00:00 20 7 Sudoeste 15 Sudoeste 0 973.6 0.2 89
2019-08-05 21:00:00 21.6 8 Sudoeste 21 Oeste 0 973.4 0.1 81
2019-08-05 20:00:00 23 12 Oeste 24 Oeste 0 973.4 0.1 73
2019-08-05 19:00:00 24 15 Oeste 26 Oeste 0 973.4 -0.3 70
2019-08-05 18:00:00 25.5 14 Oeste 28 Sudoeste 0 973.3 -0.7 61
2019-08-05 17:00:00 25.9 11 Oeste 26 Oeste 0 973.3 -1.2 57
2019-08-05 16:00:00 25.2 8 Oeste 22 Sudoeste 0 973.7 -1 60
2019-08-05 15:00:00 24.7 7 Oeste 21 Oeste 0 974 -0.9 61
2019-08-05 14:00:00 23.9 5 Oeste 30 Sudoeste 0 974.5 -0.4 63
2019-08-05 13:00:00 23.1 10 Sur 18 Sudoeste 0 974.7 -0.3 63
2019-08-05 12:00:00 21.2 9 Sur 15 Sur 0 974.9 -0.2 67
2019-08-05 11:00:00 19.5 7 Sur 13 Sur 0 974.9 -0.2 74
2019-08-05 10:00:00 17.1 5 Sur 11 Sur 0 975 0.1 86
2019-08-05 09:00:00 14.3 5 Sur 8 Sudeste 0 975.1 -0.1 94
2019-08-05 08:00:00 13.3 5 Sur 8 Sur 0 975.1 -0.1 99
2019-08-05 07:00:00 13.5 5 Sur 8 Sur 0 974.9 -0.5 98
2019-08-05 06:00:00 13.5 0 Calma 8 Sur 0 975.2 -0.4 97
2019-08-05 05:00:00 13.9 6 Sur 8 Sur 0 975.2 -0.5 90
2019-08-05 04:00:00 14.9 0 Calma -- -- 0 975.4 -0.4 85
2019-08-05 03:00:00 14.3 2 Oeste 4 Oeste 0 975.6 -0.4 87
2019-08-05 02:00:00 14.4 0 Calma 4 Nordeste 0 975.7 -0.3 90
2019-08-05 01:00:00 15.1 0 Calma 5 Este 0 975.8 0.4 90
2019-08-05 00:00:00 16.4 2 Nordeste 13 Norte 0 976 1.1 84
2019-08-04 23:00:00 17 8 Norte 15 Norte 0 976 1.3 85
2019-08-04 22:00:00 18.6 9 Norte 17 Norte 0 975.4 1 81
2019-08-04 21:00:00 20.3 12 Norte 21 Norte 0 974.9 0.4 79
2019-08-04 20:00:00 21.6 9 Norte 21 Norte 0 974.7 0.4 75
2019-08-04 19:00:00 22.7 4 Nordeste 24 Norte 0 974.4 0.1 73
2019-08-04 18:00:00 22.6 15 Norte 30 Norte 0 974.5 0.1 73
2019-08-04 17:00:00 25.7 15 Noroeste 26 Noroeste 0 974.3 -0.4 55
2019-08-04 16:00:00 25.4 12 Oeste 22 Oeste 0 974.3 -0.7 51
2019-08-04 15:00:00 24.1 10 Noroeste 22 Noroeste 0 974.4 -0.6 56
2019-08-04 14:00:00 23.6 9 Oeste 18 Sudoeste 0 974.7 -0.2 58
2019-08-04 13:00:00 21.9 5 Sudoeste 17 Norte 0 975 0.4 64
2019-08-04 12:00:00 21.9 11 Noroeste 18 Norte 0 975 0.5 71
2019-08-04 11:00:00 20.1 10 Norte 22 Noroeste 0 974.9 0.4 78
2019-08-04 10:00:00 18.3 6 Norte 15 Norte 0 974.6 0.3 90
2019-08-04 09:00:00 17.2 3 Norte 9 Norte 0 974.5 0.3 94
2019-08-04 08:00:00 16.9 8 Norte 11 Norte 0 974.5 0.1 95
2019-08-04 07:00:00 16.3 5 Norte 8 Norte 0 974.3 -0.1 97
2019-08-04 06:00:00 17 6 Norte 9 Norte 0 974.2 -0.3 94
2019-08-04 05:00:00 16.8 4 Norte 8 Norte 0 974.4 -0.4 93
2019-08-04 04:00:00 17.1 5 Norte 11 Norte 0 974.4 -0.2 92
2019-08-04 03:00:00 17 3 Norte 9 Norte 0 974.5 -0.2 93
2019-08-04 02:00:00 17 9 Norte 15 Norte 0 974.8 0.1 93
2019-08-04 01:00:00 17.3 4 Nordeste 13 Norte 0 974.6 0.5 91
2019-08-04 00:00:00 16.9 7 Norte 17 Norte 0 974.7 0.9 92
2019-08-03 23:00:00 18.1 14 Norte 22 Norte 0 974.7 1.1 86
2019-08-03 22:00:00 19.7 9 Norte 18 Norte 0 974.1 0.6 80
2019-08-03 21:00:00 21 11 Norte 22 Norte 0 973.8 0.1 76
2019-08-03 20:00:00 21.9 14 Norte 24 Norte 0 973.6 0 75
2019-08-03 19:00:00 23.7 12 Norte 28 Norte 0 973.5 0 70
2019-08-03 18:00:00 25.3 18 Norte 30 Norte 0 973.7 -0.2 65
2019-08-03 17:00:00 24.9 13 Norte 28 Norte 0 973.6 -0.6 68
2019-08-03 16:00:00 27.1 14 Noroeste 24 Noroeste 0 973.5 -0.8 54
2019-08-03 15:00:00 26.2 5 Oeste 18 Oeste 0 973.9 -0.3 52
2019-08-03 14:00:00 24.4 8 Norte 21 Noroeste 0 974.2 0.1 60
2019-08-03 13:00:00 23.4 9 Noroeste 15 Oeste 0 974.3 0.2 52
2019-08-03 12:00:00 19.6 3 Este 9 Noroeste 0 974.2 0 89
2019-08-03 11:00:00 15.3 2 Nordeste 8 Sudeste 0 974.1 0.2 100
2019-08-03 10:00:00 14.4 2 Norte 8 Este 0 974.1 0.3 100
2019-08-03 09:00:00 13.8 2 Norte 5 Norte 0 974.2 0.5 100
2019-08-03 08:00:00 13.7 5 Norte 11 Norte 0 973.9 0.1 100
2019-08-03 07:00:00 13.8 4 Norte 8 Norte 0 973.8 -0.2 100
2019-08-03 06:00:00 14.3 8 Norte 13 Noroeste 0 973.7 -0.4 100
2019-08-03 05:00:00 14.1 6 Noroeste 15 Noroeste 0 973.8 -0.6 100
2019-08-03 04:00:00 14.2 8 Noroeste 13 Noroeste 0 974 -0.9 100
2019-08-03 03:00:00 14.5 11 Oeste 13 Oeste 0 974.1 -1.1 99
2019-08-03 02:00:00 15.1 8 Noroeste 15 Noroeste 0 974.4 -1 98
2019-08-03 01:00:00 14.9 10 Norte 13 Norte 0 974.9 0 97
2019-08-03 00:00:00 16.3 9 Norte 15 Norte 0 975.2 0.5 93
2019-08-02 23:00:00 17.3 10 Norte 18 Norte 0 975.4 1.2 87
2019-08-02 22:00:00 19.3 16 Norte 28 Norte 0 974.9 1 79
2019-08-02 21:00:00 22.4 18 Norte 28 Noroeste 0 974.7 0.5 71
2019-08-02 20:00:00 24.7 18 Norte 30 Norte 0 974.2 -0.3 68
2019-08-02 19:00:00 27.4 14 Norte 28 Norte 0 973.9 -1.1 55
2019-08-02 18:00:00 27.6 10 Norte 22 Norte 0 974.2 -1.1 46
2019-08-02 17:00:00 27.3 11 Norte 26 Oeste 0 974.5 -1 54
2019-08-02 16:00:00 26.2 8 Noroeste 18 Noroeste 0 975 -0.5 53
2019-08-02 15:00:00 25.2 8 Norte 26 Norte 0 975.3 -0.4 61
2019-08-02 14:00:00 23.9 4 Sur 15 Sur 0 975.5 0 62
2019-08-02 13:00:00 21.8 5 Sudeste 13 Sur 0 975.5 0 68
2019-08-02 12:00:00 20 5 Norte 13 Norte 0 975.7 0.6 78
2019-08-02 11:00:00 18.2 4 Nordeste 15 Nordeste 0 975.5 0.7 85
2019-08-02 10:00:00 17 5 Norte 11 Nordeste 0 975.5 0.9 90
2019-08-02 09:00:00 16.3 3 Este 9 Este 0 975.1 0.5 93
2019-08-02 08:00:00 15.8 2 Este 8 Nordeste 0 974.8 0.2 95
2019-08-02 07:00:00 15.4 2 Este 11 Este 0 974.6 -0.1 96
2019-08-02 06:00:00 15.2 0 Calma 5 Este 0 974.6 -0.3 97
2019-08-02 05:00:00 14 2 Noroeste 8 Noroeste 0 974.6 -0.6 99
2019-08-02 04:00:00 13.9 3 Norte 5 Noroeste 0 974.7 -0.8 99
2019-08-02 03:00:00 14.5 3 Norte 9 Norte 0 974.9 -0.6 97
2019-08-02 02:00:00 15.2 4 Norte 13 Norte 0 975.2 -0.1 96
2019-08-02 01:00:00 16 6 Norte 13 Nordeste 0 975.5 0.9 92
2019-08-02 00:00:00 16.4 3 Norte 13 Nordeste 0 975.5 1.5 91
2019-08-01 23:00:00 17.4 9 Norte 21 Norte 0 975.3 1.8 88
2019-08-01 22:00:00 18.7 16 Norte 26 Norte 0 974.6 1.4 82
2019-08-01 21:00:00 20.4 18 Norte 32 Norte 0 974 1 74
2019-08-01 20:00:00 22.2 19 Norte 30 Norte 0 973.5 0.6 70
2019-08-01 19:00:00 23.7 17 Norte 28 Norte 0 973.2 0 67
2019-08-01 18:00:00 24.3 17 Norte 28 Norte 0 973 -0.3 64
2019-08-01 17:00:00 24.3 10 Norte 33 Norte 0 972.9 -0.4 63
2019-08-01 16:00:00 24.1 6 Nordeste 22 Nordeste 0 973.2 -0.3 60
2019-08-01 15:00:00 23.3 10 Norte 24 Norte 0 973.3 -0.1 62
2019-08-01 14:00:00 22.8 6 Nordeste 22 Nordeste 0 973.3 0.2 62
2019-08-01 13:00:00 20.8 8 Norte 22 Norte 0 973.5 0.4 72
2019-08-01 12:00:00 19.5 9 Norte 26 Norte 0 973.4 0.5 78
2019-08-01 11:00:00 17.8 7 Norte 26 Nordeste 0 973.1 0.6 84
2019-08-01 10:00:00 16.6 9 Norte 18 Norte 0 973.1 0.6 90
2019-08-01 09:00:00 14.7 9 Norte 17 Norte 0 972.9 0.3 97
2019-08-01 08:00:00 13.4 8 Norte 15 Norte 0 972.5 -0.3 98
2019-08-01 07:00:00 12.8 6 Norte 11 Norte 0 972.5 -0.6 98
2019-08-01 06:00:00 12.8 5 Norte 11 Norte 0 972.6 -0.7 98
2019-08-01 05:00:00 13.1 6 Norte 17 Norte 0 972.8 -1 96
2019-08-01 04:00:00 13.2 10 Norte 18 Norte 0 973.1 -0.8 95
2019-08-01 03:00:00 13.5 6 Norte 17 Norte 0 973.3 -0.9 91
2019-08-01 02:00:00 14.4 11 Norte 17 Norte 0 973.8 -0.5 87
2019-08-01 01:00:00 14.8 5 Norte 15 Nordeste 0 973.9 -0.1 84
2019-08-01 00:00:00 15.6 6 Norte 22 Nordeste 0 974.2 0.3 80
2019-07-31 23:00:00 16 12 Norte 21 Norte 0 974.3 0.4 84
2019-07-31 22:00:00 17.2 13 Norte 21 Norte 0 974 0.1 80
2019-07-31 21:00:00 18.4 13 Norte 24 Norte 0 973.9 -0.3 73
2019-07-31 20:00:00 20.1 15 Norte 30 Norte 0 973.9 -0.8 66
2019-07-31 19:00:00 20.9 18 Norte 30 Norte 0 973.9 -1.1 62
2019-07-31 18:00:00 21 16 Norte 30 Nordeste 0 974.2 -1 62
2019-07-31 17:00:00 21.6 12 Norte 32 Norte 0 974.7 -0.8 61
2019-07-31 16:00:00 22.2 11 Norte 24 Norte 0 975 -1.3 58
2019-07-31 15:00:00 21.3 11 Norte 26 Norte 0 975.2 -1.2 58
2019-07-31 14:00:00 20.4 13 Norte 24 Norte 0 975.5 -1.1 57
2019-07-31 13:00:00 19.5 10 Norte 26 Norte 0 976.3 -0.6 57
2019-07-31 12:00:00 17.8 10 Norte 22 Norte 0 976.4 -0.4 63
2019-07-31 11:00:00 16.5 6 Nordeste 22 Sudeste 0 976.6 -0.4 66
2019-07-31 10:00:00 13.5 5 Norte 13 Norte 0 976.9 0.1 81
2019-07-31 09:00:00 11.9 2 Norte 9 Sudeste 0 976.8 -0.1 87
2019-07-31 08:00:00 10.6 0 Calma 9 Norte 0 977 -0.2 93
2019-07-31 07:00:00 10.4 3 Norte 11 Norte 0 976.8 -0.9 95
2019-07-31 06:00:00 10.6 5 Norte 11 Norte 0 976.9 -1.1 96
2019-07-31 05:00:00 10.5 0 Calma 11 Norte 0 977.2 -1.3 96
2019-07-31 04:00:00 10.7 4 Norte 9 Norte 0 977.7 -1.1 96
2019-07-31 03:00:00 10.7 0 Calma 8 Nordeste 0 978 -1 94
2019-07-31 02:00:00 11.6 0 Calma 13 Norte 0 978.5 -0.5 91
2019-07-31 01:00:00 11.5 5 Noroeste 13 Norte 0 978.8 0.1 90
2019-07-31 00:00:00 13.2 9 Norte 24 Norte 0 979 0.7 85
2019-07-30 23:00:00 13.8 13 Norte 24 Norte 0 979 1 81
2019-07-30 22:00:00 14.9 15 Norte 26 Norte 0 978.7 0.6 75
2019-07-30 21:00:00 17.1 17 Norte 28 Norte 0 978.3 0 67
2019-07-30 20:00:00 19 8 Norte 22 Norte 0 978 -0.7 63
2019-07-30 19:00:00 19.3 13 Norte 24 Norte 0 978.1 -0.8 60
2019-07-30 18:00:00 19.1 8 Norte 21 Norte 0 978.3 -0.9 61
2019-07-30 17:00:00 20.3 15 Norte 26 Norte 0 978.7 -0.8 57
2019-07-30 16:00:00 19.8 12 Norte 33 Norte 0 978.9 -0.7 55
2019-07-30 15:00:00 20 10 Norte 30 Norte 0 979.2 -0.4 61
2019-07-30 14:00:00 18.9 6 Norte 21 Norte 0 979.5 0 60
2019-07-30 13:00:00 18.1 5 Norte 22 Norte 0 979.6 0 59
2019-07-30 12:00:00 17.2 8 Norte 24 Norte 0 979.6 0.5 64
2019-07-30 11:00:00 15.4 4 Noroeste 13 Noroeste 0 979.5 0.7 79
2019-07-30 10:00:00 14 5 Sur 11 Sur 0 979.6 1.3 94
2019-07-30 09:00:00 12.1 3 Sudeste 8 Sur 0 979.1 0.8 99
2019-07-30 08:00:00 11.7 5 Sur 8 Sur 0 978.8 0.7 98
2019-07-30 07:00:00 12.4 4 Oeste 15 Sudoeste 0 978.3 0 97
2019-07-30 06:00:00 12.6 7 Oeste 11 Sudoeste 0 978.3 0.1 94
2019-07-30 05:00:00 12.5 7 Oeste 11 Oeste 0 978.1 0.1 95
2019-07-30 04:00:00 12.5 3 Oeste 8 Oeste 0 978.3 0.3 95
2019-07-30 03:00:00 12 3 Sudoeste 5 Sur 0 978.2 0.6 97
2019-07-30 02:00:00 12.2 2 Sudeste 8 Sur 0 978 1.1 96
2019-07-30 01:00:00 13.2 6 Oeste 17 Oeste 0 978 1.7 91
2019-07-30 00:00:00 13.1 10 Oeste 17 Oeste 0 977.6 1.9 92
2019-07-29 23:00:00 13.3 0 Calma 13 Noroeste 0 976.9 1.6 88
2019-07-29 22:00:00 15.2 10 Noroeste 22 Noroeste 0 976.3 1 78
2019-07-29 21:00:00 16 17 Noroeste 32 Noroeste 0 975.7 1.2 72
2019-07-29 20:00:00 16.7 21 Oeste 33 Oeste 0 975.3 1.1 73
2019-07-29 19:00:00 16.1 18 Oeste 37 Noroeste 0 975.3 1.4 73
2019-07-29 18:00:00 18.4 20 Oeste 39 Noroeste 0 974.5 0.9 64
2019-07-29 17:00:00 19.7 23 Noroeste 35 Noroeste 0 974.2 1.1 58
2019-07-29 16:00:00 19.6 19 Oeste 39 Oeste 0 973.9 1.1 64
2019-07-29 15:00:00 19 25 Oeste 41 Oeste 0.1 973.6 1 67
2019-07-29 14:00:00 19.3 15 Oeste 33 Sudoeste 0 973.1 1.1 71
2019-07-29 13:00:00 17.5 18 Oeste 35 Oeste 0.2 972.8 1.3 81
2019-07-29 12:00:00 16.5 18 Oeste 32 Oeste 0.5 972.6 1.4 84
2019-07-29 11:00:00 16.1 15 Oeste 32 Sudoeste 0 972 1.4 83
2019-07-29 10:00:00 15.4 13 Sudoeste 26 Oeste 0.1 971.5 1.6 90
2019-07-29 09:00:00 15.1 10 Sudoeste 21 Sur 0 971.2 1.6 97
2019-07-29 08:00:00 14.6 10 Sudoeste 22 Sudoeste 0 970.6 1.3 95
2019-07-29 07:00:00 14.8 12 Sudoeste 22 Sudoeste 0 969.9 1 93
2019-07-29 06:00:00 15.2 12 Oeste 26 Oeste 0 969.6 0.6 95
2019-07-29 05:00:00 15.5 12 Oeste 30 Oeste 0 969.3 0.4 97
2019-07-29 04:00:00 15.6 16 Sudoeste 37 Oeste 0 968.9 -0.2 97
2019-07-29 03:00:00 15.4 15 Sudoeste 37 Sur 0 969 -0.3 100
2019-07-29 02:00:00 14.5 19 Sur 30 Sur 0 968.9 -0.6 99
2019-07-29 01:00:00 15.1 17 Sur 30 Sudoeste 0.1 969.1 -0.2 91
2019-07-29 00:00:00 15.6 17 Sur 26 Sur 0 969.3 0.3 81
2019-07-28 23:00:00 15 8 Sur 26 Sudoeste 0 969.5 0.9 90
2019-07-28 22:00:00 16.2 17 Sudoeste 37 Sudoeste 0 969.3 0.7 77
2019-07-28 21:00:00 18.4 15 Sudoeste 30 Sudoeste 0 969 0.2 62
2019-07-28 20:00:00 20.8 17 Sudoeste 33 Oeste 0 968.6 -0.5 54
2019-07-28 19:00:00 22.2 20 Sudoeste 33 Sudoeste 0 968.6 -1.1 53
2019-07-28 18:00:00 23.2 19 Sudoeste 30 Sudoeste 0 968.8 -1.3 49
2019-07-28 17:00:00 23.6 17 Sudoeste 35 Sudoeste 0 969.1 -1.4 46
2019-07-28 16:00:00 23.7 11 Sudoeste 30 Sudoeste 0 969.7 -1.2 45
2019-07-28 15:00:00 23.2 13 Sudoeste 26 Sur 0 970.1 -0.8 48
2019-07-28 14:00:00 22.3 11 Sudoeste 28 Sudoeste 0 970.5 -0.7 51
2019-07-28 13:00:00 21.2 10 Sudoeste 21 Sur 0 970.9 -0.7 59
2019-07-28 12:00:00 19.4 5 Sur 15 Sur 0 970.9 -0.7 70
2019-07-28 11:00:00 17 3 Este 9 Este 0 971.2 -0.6 81
2019-07-28 10:00:00 14.6 4 Nordeste 11 Este 0 971.6 0.2 88
2019-07-28 09:00:00 12.3 0 Calma 8 Este 0 971.6 -0.1 100
2019-07-28 08:00:00 9.4 2 Noroeste 8 Noroeste 0 971.8 -0.5 100
2019-07-28 07:00:00 11.1 0 Calma 5 Este 0 971.4 -1 100
2019-07-28 06:00:00 11.3 0 Calma 8 Nordeste 0 971.7 -1.1 100
2019-07-28 05:00:00 11.8 3 Este 9 Norte 0 972.3 -1 99
2019-07-28 04:00:00 12.1 2 Norte 8 Norte 0 972.4 -0.9 100
2019-07-28 03:00:00 12.6 0 Calma 9 Nordeste 0 972.8 -0.2 100
2019-07-28 02:00:00 13 0 Calma 11 Nordeste 0 973.3 0.4 98
2019-07-28 01:00:00 14 6 Norte 15 Norte 0 973.3 1.1 95
2019-07-28 00:00:00 14.1 10 Norte 21 Norte 0 973 1.2 96
2019-07-27 23:00:00 14.7 12 Norte 28 Norte 0 972.9 1.5 93
2019-07-26 12:00:00 18.4 11 Norte 17 Norte 0 974.8 0.2 75
2019-07-26 11:00:00 17.3 7 Norte 17 Norte 0 974.8 0.3 79
2019-07-26 10:00:00 16.1 7 Norte 13 Norte 0 974.8 0.4 90
2019-07-26 09:00:00 15.1 4 Oeste 11 Oeste 0 974.6 0.5 97
2019-07-26 08:00:00 14.7 3 Oeste 13 Oeste 0.1 974.5 0.4 99
2019-07-26 07:00:00 14.8 5 Oeste 17 Oeste 0 974.4 0.1 98
2019-07-26 06:00:00 14.6 3 Oeste 8 Oeste 0 974.1 -0.3 100
2019-07-26 05:00:00 14.7 5 Oeste 11 Oeste 0 974.1 -0.5 99
2019-07-26 04:00:00 15 5 Noroeste 9 Noroeste 0 974.3 -0.3 99
2019-07-26 03:00:00 15.6 4 Sudoeste 13 Sudoeste 0 974.4 -0.4 99
2019-07-26 02:00:00 15.2 6 Sudoeste 13 Sur 0 974.6 0.4 99
2019-07-26 01:00:00 15.3 6 Oeste 13 Oeste 0 974.6 0.9 98
2019-07-26 00:00:00 16.2 7 Oeste 15 Sudoeste 0 974.8 1.4 96
2019-07-25 23:00:00 16.1 11 Sudoeste 18 Oeste 0 974.2 1.3 97
2019-07-25 22:00:00 17.3 11 Sudoeste 21 Sudoeste 0 973.7 1.1 91
2019-07-25 21:00:00 18.2 12 Sudoeste 21 Sudoeste 0 973.4 0.8 85
2019-07-25 20:00:00 19.1 13 Oeste 30 Oeste 0 972.9 0.4 80
2019-07-25 19:00:00 19.9 17 Sudoeste 30 Sudoeste 0 972.6 0.2 75
2019-07-25 18:00:00 21 15 Sudoeste 28 Sudoeste 0 972.6 0.2 74
2019-07-25 17:00:00 20.2 17 Sudoeste 32 Oeste 0 972.5 0.3 79
2019-07-25 16:00:00 19.6 14 Sudoeste 32 Sudoeste 0 972.4 0.8 86
2019-07-25 15:00:00 18 17 Sudoeste 30 Sur 0.1 972.4 1.5 96
2019-07-25 14:00:00 17.3 15 Sudoeste 28 Oeste 0.3 972.2 1.8 98
2019-07-25 13:00:00 17.7 16 Oeste 32 Oeste 0.7 971.6 1.4 98
2019-07-25 12:00:00 17.8 15 Sudoeste 33 Oeste 1 970.9 0.9 99
2019-07-25 11:00:00 18.5 17 Sudoeste 35 Sudoeste 0 970.4 0.7 98
2019-07-25 10:00:00 18.9 13 Sur 33 Sur 0 970.2 0.5 93
2019-07-25 09:00:00 18.7 19 Sur 28 Sur 0 970 0.5 95
2019-07-25 08:00:00 18 14 Sur 30 Sur 0 969.7 0.1 98
2019-07-25 07:00:00 18 14 Sur 30 Sur 0 969.7 0.1 99
2019-07-25 06:00:00 17.8 13 Sur 26 Sur 0 969.5 -0.3 99
2019-07-25 05:00:00 17.9 14 Sur 30 Sur 0 969.6 -0.4 96
2019-07-25 04:00:00 17.9 21 Sur 32 Sur 0 969.6 -1 93
2019-07-25 03:00:00 17.4 18 Sudoeste 35 Sur 0 969.8 -1.1 95
2019-07-25 02:00:00 17.3 21 Sur 30 Sur 0 970 -1 98
2019-07-25 01:00:00 17.9 15 Sudoeste 30 Sudoeste 0 970.6 -0.1 96
2019-07-25 00:00:00 17.7 14 Sudoeste 30 Sudoeste 0 970.9 0.1 96
2019-07-24 23:00:00 18.1 12 Sudoeste 24 Sudoeste 0 971 0.2 94
2019-07-24 22:00:00 19.1 13 Sudoeste 30 Sudoeste 0 970.7 0 90
2019-07-24 21:00:00 20.9 19 Sudoeste 32 Sudoeste 0 970.8 0 80
2019-07-24 20:00:00 21.4 18 Sudoeste 35 Oeste 0 970.8 -0.1 77
2019-07-24 19:00:00 23.5 24 Sudoeste 37 Sudoeste 0 970.7 -0.8 72
2019-07-24 18:00:00 24.7 17 Sudoeste 30 Sudoeste 0 970.8 -1 65
2019-07-24 17:00:00 25.5 19 Sudoeste 39 Sudoeste 0 970.9 -0.9 57
2019-07-24 16:00:00 25.2 18 Sudoeste 32 Sur 0 971.5 -0.5 57
2019-07-24 15:00:00 25.3 20 Oeste 30 Oeste 0 971.8 -0.4 57
2019-07-24 14:00:00 25.4 18 Sudoeste 28 Sudoeste 0 971.8 -0.6 52
2019-07-24 13:00:00 23.8 13 Sudoeste 22 Sudoeste 0 972 -0.6 59
2019-07-24 12:00:00 22.3 7 Sudoeste 17 Sudoeste 0 972.2 -0.5 66
2019-07-24 11:00:00 19.7 4 Sur 9 Sur 0 972.4 -0.5 81
2019-07-24 10:00:00 15.8 4 Sudeste 8 Sudeste 0 972.6 -0.1 100
2019-07-24 09:00:00 14.2 3 Sudeste 8 Este 0 972.7 -0.4 100
2019-07-24 08:00:00 14 4 Sur 9 Sur 0 972.9 -0.1 100
2019-07-24 07:00:00 13.8 5 Sur 8 Sur 0 972.7 -0.9 100
2019-07-24 06:00:00 14.3 4 Oeste 8 Oeste 0 973.1 -0.9 100
2019-07-24 05:00:00 15.4 4 Sudeste -- -- 0 973 -1.8 100
2019-07-24 04:00:00 15.6 2 Sur 5 Sur 0 973.6 -1 99
2019-07-24 03:00:00 15.9 4 Sur 5 Sur 0 974 -0.8 98
2019-07-24 02:00:00 16.5 0 Calma 5 Este 0 974.8 0.1 95
2019-07-24 01:00:00 17 6 Oeste 17 Oeste 0 974.6 0.5 93
2019-07-24 00:00:00 17.8 13 Oeste 21 Oeste 0 974.8 1.1 92
2019-07-23 23:00:00 19.2 8 Oeste 13 Oeste 0 974.7 0.9 84
2019-07-23 22:00:00 21.4 9 Oeste 15 Oeste 0 974.1 0 75
2019-07-23 21:00:00 23.7 9 Sudoeste 17 Sudoeste 0 973.7 -0.4 68
2019-07-23 20:00:00 25.8 10 Sudoeste 21 Oeste 0 973.8 -0.4 55
2019-07-23 19:00:00 25.5 12 Oeste 21 Oeste 0 974.1 -0.1 64
2019-07-23 18:00:00 25.5 13 Oeste 28 Sudoeste 0 974.1 0.2 66
2019-07-23 17:00:00 26.8 12 Oeste 28 Oeste 0 974.2 0.6 62
2019-07-23 16:00:00 26.1 15 Oeste 28 Oeste 0 974.2 0.7 64
2019-07-23 15:00:00 25.9 16 Sudoeste 33 Oeste 0 973.9 0.4 66
2019-07-23 14:00:00 26.2 12 Oeste 24 Sur 0 973.6 0.5 65
2019-07-23 13:00:00 24.9 13 Sudoeste 22 Sur 0 973.5 0.5 69
2019-07-23 12:00:00 23.2 12 Oeste 22 Noroeste 0 973.5 0.5 78
2019-07-23 11:00:00 21.8 13 Oeste 24 Noroeste 0 973.1 0 80
2019-07-23 10:00:00 21 7 Oeste 17 Oeste 0 973 0.5 90
2019-07-23 09:00:00 18.9 0 Calma 11 Oeste 0 973 0.5 99
2019-07-23 08:00:00 18.2 3 Este 18 Sudoeste 0 973.1 0.8 100
2019-07-23 07:00:00 18.3 6 Noroeste 11 Noroeste 0 972.5 -0.1 99
2019-07-23 06:00:00 18 6 Oeste 17 Oeste 0 972.5 -0.8 98
2019-07-23 05:00:00 18.8 4 Sur 13 Sudeste 0 972.3 -1.4 97
2019-07-23 04:00:00 19.1 2 Sudeste -- -- 0 972.6 -1.7 95
2019-07-23 03:00:00 19.2 2 Sudoeste 8 Oeste 0 973.3 -1 96
2019-07-23 02:00:00 20.2 2 Nordeste 8 Nordeste 0 973.7 -0.7 93
2019-07-23 01:00:00 20.6 7 Noroeste 13 Norte 0 974.3 0 91
2019-07-23 00:00:00 21.3 10 Norte 15 Noroeste 0 974.3 0.2 88
2019-07-22 23:00:00 22.2 13 Norte 18 Norte 0 974.4 0.8 85
2019-07-22 22:00:00 24.2 14 Norte 22 Norte 0 974.3 0.6 79
2019-07-22 21:00:00 26.6 14 Norte 24 Norte 0 974.1 0.1 72
2019-07-22 20:00:00 28.4 15 Norte 26 Norte 0 973.6 -0.7 66
2019-07-22 19:00:00 30.5 16 Norte 30 Norte 0 973.7 -1.1 62
2019-07-22 18:00:00 31.9 9 Noroeste 22 Norte 0 974 -1.1 54
2019-07-22 17:00:00 31.4 10 Noroeste 21 Norte 0 974.3 -1.3 54
2019-07-22 16:00:00 30.6 2 Nordeste 15 Norte 0 974.8 -1.5 53
2019-07-22 15:00:00 29 7 Norte 17 Norte 0 975.1 -1.4 61
2019-07-22 14:00:00 27.2 7 Norte 17 Norte 0 975.6 -1.2 66
2019-07-22 13:00:00 25.5 6 Nordeste 15 Este 0 976.3 -0.7 70
2019-07-22 12:00:00 23.1 6 Nordeste 17 Nordeste 0 976.5 -0.7 78
2019-07-22 11:00:00 20.7 4 Nordeste 15 Norte 0 976.8 -0.3 84
2019-07-22 10:00:00 19.1 3 Nordeste 9 Nordeste 0 977 -0.3 89
2019-07-22 09:00:00 16.6 3 Norte 8 Norte 0 977.2 -0.1 100
2019-07-22 08:00:00 15.3 3 Norte 9 Norte 0 977.1 -0.5 100
2019-07-22 07:00:00 15 0 Calma 8 Nordeste 0 977.3 -0.8 100
2019-07-22 06:00:00 15.8 2 Nordeste 11 Norte 0 977.3 -1.3 100
2019-07-22 05:00:00 16.2 3 Nordeste 17 Norte 0 977.6 -1.5 100
2019-07-22 04:00:00 16 8 Norte 17 Norte 0 978.1 -1 100
2019-07-22 03:00:00 16.1 8 Norte 15 Norte 0 978.6 -0.9 97
2019-07-22 02:00:00 16.6 9 Norte 17 Norte 0 979.1 -0.4 95
2019-07-22 01:00:00 16.9 4 Norte 11 Nordeste 0 979.1 0.1 94
2019-07-22 00:00:00 17.4 3 Nordeste 21 Norte 0 979.5 0.7 94
2019-07-21 23:00:00 18.3 12 Norte 22 Norte 0 979.5 0.9 92
2019-07-21 22:00:00 19.6 14 Norte 24 Norte 0 979 0.6 85
2019-07-21 21:00:00 21.3 15 Norte 35 Norte 0 978.8 0.3 77
2019-07-21 20:00:00 22.4 21 Norte 37 Norte 0 978.6 -0.1 75
2019-07-21 19:00:00 23.7 19 Norte 37 Norte 0 978.4 -0.3 72
2019-07-21 18:00:00 24.4 25 Norte 37 Norte 0 978.5 -0.4 68
2019-07-21 17:00:00 24.9 17 Norte 32 Norte 0 978.7 -0.1 66
2019-07-21 16:00:00 24.6 13 Norte 30 Norte 0 978.7 -0.1 66
2019-07-21 15:00:00 25 13 Norte 28 Norte 0 978.9 0 63
2019-07-21 14:00:00 24.4 7 Norte 24 Norte 0 978.8 -0.2 60
2019-07-21 13:00:00 23 8 Norte 21 Norte 0 978.8 -0.5 64
2019-07-21 12:00:00 21.5 8 Nordeste 22 Norte 0 978.9 -0.3 71
2019-07-21 11:00:00 19.6 8 Nordeste 22 Norte 0 979 0.3 79
2019-07-21 10:00:00 17.5 5 Norte 17 Norte 0 979.3 1 88
2019-07-21 09:00:00 15.6 8 Norte 13 Norte 0 979.2 0.9 96
2019-07-21 08:00:00 14.7 4 Norte 13 Norte 0 978.7 0.5 99
2019-07-21 07:00:00 14.4 5 Norte 18 Norte 0 978.3 0 100
2019-07-21 06:00:00 14.4 8 Norte 15 Norte 0 978.3 -0.1 100
2019-07-21 05:00:00 14.1 6 Norte 13 Norte 0 978.2 -0.4 100
2019-07-21 04:00:00 14.8 7 Norte 13 Norte 0 978.3 -0.3 100
2019-07-21 03:00:00 15 5 Norte 17 Norte 0 978.4 -0.2 99
2019-07-21 02:00:00 14.9 9 Norte 17 Norte 0 978.6 0 98
2019-07-21 01:00:00 15.5 7 Norte 18 Norte 0 978.6 0.6 96
2019-07-21 00:00:00 15.5 12 Norte 18 Norte 0 978.6 1.1 94